sensor_id;sensor_type;location;lat;lon;timestamp;temperature;humidity
83500;DHT22;73433;50.908;13.746;2023-12-20T00:00:37;5.60;90.30
83500;DHT22;73433;50.908;13.746;2023-12-20T00:03:05;5.60;90.60
83500;DHT22;73433;50.908;13.746;2023-12-20T00:05:32;5.60;90.50
83500;DHT22;73433;50.908;13.746;2023-12-20T00:08:00;5.50;90.20
83500;DHT22;73433;50.908;13.746;2023-12-20T00:10:28;5.50;90.30
83500;DHT22;73433;50.908;13.746;2023-12-20T00:12:55;5.40;90.30
83500;DHT22;73433;50.908;13.746;2023-12-20T00:15:23;5.40;90.30
83500;DHT22;73433;50.908;13.746;2023-12-20T00:17:50;5.40;90.10
83500;DHT22;73433;50.908;13.746;2023-12-20T00:20:18;5.40;90.10
83500;DHT22;73433;50.908;13.746;2023-12-20T00:22:46;5.30;90.10
83500;DHT22;73433;50.908;13.746;2023-12-20T00:25:13;5.30;90.20
83500;DHT22;73433;50.908;13.746;2023-12-20T00:27:41;5.20;90.30
83500;DHT22;73433;50.908;13.746;2023-12-20T00:30:10;5.20;90.40
83500;DHT22;73433;50.908;13.746;2023-12-20T00:32:38;5.20;90.40
83500;DHT22;73433;50.908;13.746;2023-12-20T00:35:06;5.10;90.50
83500;DHT22;73433;50.908;13.746;2023-12-20T00:37:33;5.10;90.40
83500;DHT22;73433;50.908;13.746;2023-12-20T00:40:01;5.10;90.40
83500;DHT22;73433;50.908;13.746;2023-12-20T00:42:29;5.10;90.40
83500;DHT22;73433;50.908;13.746;2023-12-20T00:44:56;5.10;90.50
83500;DHT22;73433;50.908;13.746;2023-12-20T00:47:24;5.10;90.50
83500;DHT22;73433;50.908;13.746;2023-12-20T00:49:51;5.10;90.60
83500;DHT22;73433;50.908;13.746;2023-12-20T00:52:19;5.00;90.50
83500;DHT22;73433;50.908;13.746;2023-12-20T00:54:46;5.00;90.50
83500;DHT22;73433;50.908;13.746;2023-12-20T00:57:14;5.00;90.60
83500;DHT22;73433;50.908;13.746;2023-12-20T00:59:42;4.90;90.80
83500;DHT22;73433;50.908;13.746;2023-12-20T01:02:09;4.90;90.80
83500;DHT22;73433;50.908;13.746;2023-12-20T01:04:37;4.90;90.70
83500;DHT22;73433;50.908;13.746;2023-12-20T01:07:05;4.90;90.70
83500;DHT22;73433;50.908;13.746;2023-12-20T01:09:32;4.80;90.70
83500;DHT22;73433;50.908;13.746;2023-12-20T01:12:00;4.80;90.80
83500;DHT22;73433;50.908;13.746;2023-12-20T01:14:27;4.80;90.90
83500;DHT22;73433;50.908;13.746;2023-12-20T01:16:55;4.80;90.90
83500;DHT22;73433;50.908;13.746;2023-12-20T01:19:22;4.70;91.10
83500;DHT22;73433;50.908;13.746;2023-12-20T01:21:51;4.70;91.10
83500;DHT22;73433;50.908;13.746;2023-12-20T01:24:18;4.70;91.00
83500;DHT22;73433;50.908;13.746;2023-12-20T01:26:46;4.70;91.10
83500;DHT22;73433;50.908;13.746;2023-12-20T01:29:14;4.70;91.00
83500;DHT22;73433;50.908;13.746;2023-12-20T01:31:42;4.70;91.00
83500;DHT22;73433;50.908;13.746;2023-12-20T01:34:09;4.60;90.70
83500;DHT22;73433;50.908;13.746;2023-12-20T01:36:37;4.60;91.00
83500;DHT22;73433;50.908;13.746;2023-12-20T01:39:04;4.60;91.20
83500;DHT22;73433;50.908;13.746;2023-12-20T01:41:47;4.60;91.20
83500;DHT22;73433;50.908;13.746;2023-12-20T01:44:14;4.60;91.00
83500;DHT22;73433;50.908;13.746;2023-12-20T01:46:42;4.60;90.90
83500;DHT22;73433;50.908;13.746;2023-12-20T01:49:10;4.60;91.00
83500;DHT22;73433;50.908;13.746;2023-12-20T01:51:37;4.60;90.90
83500;DHT22;73433;50.908;13.746;2023-12-20T01:54:05;4.50;90.90
83500;DHT22;73433;50.908;13.746;2023-12-20T01:56:34;4.50;91.00
83500;DHT22;73433;50.908;13.746;2023-12-20T01:59:01;4.40;91.00
83500;DHT22;73433;50.908;13.746;2023-12-20T02:01:30;4.40;91.10
83500;DHT22;73433;50.908;13.746;2023-12-20T02:03:58;4.40;91.30
83500;DHT22;73433;50.908;13.746;2023-12-20T02:06:30;4.40;91.30
83500;DHT22;73433;50.908;13.746;2023-12-20T02:08:58;4.40;91.40
83500;DHT22;73433;50.908;13.746;2023-12-20T02:11:27;4.40;91.60
83500;DHT22;73433;50.908;13.746;2023-12-20T02:13:56;4.40;91.40
83500;DHT22;73433;50.908;13.746;2023-12-20T02:16:23;4.40;91.40
83500;DHT22;73433;50.908;13.746;2023-12-20T02:18:51;4.40;91.40
83500;DHT22;73433;50.908;13.746;2023-12-20T02:21:24;4.40;91.40
83500;DHT22;73433;50.908;13.746;2023-12-20T02:23:52;4.40;91.60
83500;DHT22;73433;50.908;13.746;2023-12-20T02:26:19;4.40;91.50
83500;DHT22;73433;50.908;13.746;2023-12-20T02:28:47;4.30;91.50
83500;DHT22;73433;50.908;13.746;2023-12-20T02:31:14;4.30;91.50
83500;DHT22;73433;50.908;13.746;2023-12-20T02:33:42;4.30;91.60
83500;DHT22;73433;50.908;13.746;2023-12-20T02:36:10;4.20;91.60
83500;DHT22;73433;50.908;13.746;2023-12-20T02:38:37;4.20;91.70
83500;DHT22;73433;50.908;13.746;2023-12-20T02:41:05;4.20;91.90
83500;DHT22;73433;50.908;13.746;2023-12-20T02:43:32;4.30;92.00
83500;DHT22;73433;50.908;13.746;2023-12-20T02:46:00;4.20;91.60
83500;DHT22;73433;50.908;13.746;2023-12-20T02:48:27;4.30;91.80
83500;DHT22;73433;50.908;13.746;2023-12-20T02:50:55;4.30;91.90
83500;DHT22;73433;50.908;13.746;2023-12-20T02:53:22;4.30;91.80
83500;DHT22;73433;50.908;13.746;2023-12-20T02:55:50;4.30;91.70
83500;DHT22;73433;50.908;13.746;2023-12-20T02:58:17;4.30;91.60
83500;DHT22;73433;50.908;13.746;2023-12-20T03:00:45;4.30;91.50
83500;DHT22;73433;50.908;13.746;2023-12-20T03:03:13;4.30;91.60
83500;DHT22;73433;50.908;13.746;2023-12-20T03:05:40;4.30;91.50
83500;DHT22;73433;50.908;13.746;2023-12-20T03:08:08;4.30;91.50
83500;DHT22;73433;50.908;13.746;2023-12-20T03:10:35;4.40;91.60
83500;DHT22;73433;50.908;13.746;2023-12-20T03:13:03;4.40;91.30
83500;DHT22;73433;50.908;13.746;2023-12-20T03:15:31;4.40;91.30
83500;DHT22;73433;50.908;13.746;2023-12-20T03:17:59;4.40;91.40
83500;DHT22;73433;50.908;13.746;2023-12-20T03:20:26;4.40;91.20
83500;DHT22;73433;50.908;13.746;2023-12-20T03:22:54;4.30;91.00
83500;DHT22;73433;50.908;13.746;2023-12-20T03:25:21;4.30;91.10
83500;DHT22;73433;50.908;13.746;2023-12-20T03:27:49;4.30;91.30
83500;DHT22;73433;50.908;13.746;2023-12-20T03:30:17;4.20;91.30
83500;DHT22;73433;50.908;13.746;2023-12-20T03:32:44;4.20;91.60
83500;DHT22;73433;50.908;13.746;2023-12-20T03:35:12;4.20;91.60
83500;DHT22;73433;50.908;13.746;2023-12-20T03:37:40;4.20;92.50
83500;DHT22;73433;50.908;13.746;2023-12-20T03:40:08;4.20;91.80
83500;DHT22;73433;50.908;13.746;2023-12-20T03:42:36;4.30;92.00
83500;DHT22;73433;50.908;13.746;2023-12-20T03:45:03;4.30;91.70
83500;DHT22;73433;50.908;13.746;2023-12-20T03:47:31;4.30;91.50
83500;DHT22;73433;50.908;13.746;2023-12-20T03:49:58;4.30;91.50
83500;DHT22;73433;50.908;13.746;2023-12-20T03:52:26;4.20;91.50
83500;DHT22;73433;50.908;13.746;2023-12-20T03:54:54;4.20;91.60
83500;DHT22;73433;50.908;13.746;2023-12-20T03:57:21;4.20;91.70
83500;DHT22;73433;50.908;13.746;2023-12-20T03:59:49;4.20;92.00
83500;DHT22;73433;50.908;13.746;2023-12-20T04:02:16;4.20;92.10
83500;DHT22;73433;50.908;13.746;2023-12-20T04:04:45;4.20;91.90
83500;DHT22;73433;50.908;13.746;2023-12-20T04:07:12;4.20;92.70
83500;DHT22;73433;50.908;13.746;2023-12-20T04:09:41;4.20;92.10
83500;DHT22;73433;50.908;13.746;2023-12-20T04:12:08;4.10;92.10
83500;DHT22;73433;50.908;13.746;2023-12-20T04:14:36;4.20;92.20
83500;DHT22;73433;50.908;13.746;2023-12-20T04:17:03;4.20;92.10
83500;DHT22;73433;50.908;13.746;2023-12-20T04:19:31;4.20;92.20
83500;DHT22;73433;50.908;13.746;2023-12-20T04:21:58;4.20;92.20
83500;DHT22;73433;50.908;13.746;2023-12-20T04:24:26;4.20;92.20
83500;DHT22;73433;50.908;13.746;2023-12-20T04:26:53;4.20;92.20
83500;DHT22;73433;50.908;13.746;2023-12-20T04:29:21;4.10;92.30
83500;DHT22;73433;50.908;13.746;2023-12-20T04:31:48;4.10;92.30
83500;DHT22;73433;50.908;13.746;2023-12-20T04:34:18;4.10;92.60
83500;DHT22;73433;50.908;13.746;2023-12-20T04:36:46;4.10;92.60
83500;DHT22;73433;50.908;13.746;2023-12-20T04:39:14;4.10;92.60
83500;DHT22;73433;50.908;13.746;2023-12-20T04:41:44;4.10;92.70
83500;DHT22;73433;50.908;13.746;2023-12-20T04:44:12;4.10;92.90
83500;DHT22;73433;50.908;13.746;2023-12-20T04:46:39;4.10;92.90
83500;DHT22;73433;50.908;13.746;2023-12-20T04:49:07;4.10;93.10
83500;DHT22;73433;50.908;13.746;2023-12-20T04:51:35;4.00;93.10
83500;DHT22;73433;50.908;13.746;2023-12-20T04:54:02;4.00;93.20
83500;DHT22;73433;50.908;13.746;2023-12-20T04:56:30;4.00;93.30
83500;DHT22;73433;50.908;13.746;2023-12-20T04:58:57;4.00;93.40
83500;DHT22;73433;50.908;13.746;2023-12-20T05:01:25;4.00;93.50
83500;DHT22;73433;50.908;13.746;2023-12-20T05:03:52;4.10;93.70
83500;DHT22;73433;50.908;13.746;2023-12-20T05:06:20;4.00;93.60
83500;DHT22;73433;50.908;13.746;2023-12-20T05:08:47;4.10;93.80
83500;DHT22;73433;50.908;13.746;2023-12-20T05:11:15;4.10;93.90
83500;DHT22;73433;50.908;13.746;2023-12-20T05:13:43;4.10;93.90
83500;DHT22;73433;50.908;13.746;2023-12-20T05:16:16;4.10;93.90
83500;DHT22;73433;50.908;13.746;2023-12-20T05:18:48;4.10;93.90
83500;DHT22;73433;50.908;13.746;2023-12-20T05:21:19;4.10;93.90
83500;DHT22;73433;50.908;13.746;2023-12-20T05:23:47;4.10;93.80
83500;DHT22;73433;50.908;13.746;2023-12-20T05:26:14;4.10;93.90
83500;DHT22;73433;50.908;13.746;2023-12-20T05:28:42;4.10;94.00
83500;DHT22;73433;50.908;13.746;2023-12-20T05:31:09;4.10;94.00
83500;DHT22;73433;50.908;13.746;2023-12-20T05:33:37;4.10;94.00
83500;DHT22;73433;50.908;13.746;2023-12-20T05:36:04;4.10;94.00
83500;DHT22;73433;50.908;13.746;2023-12-20T05:38:32;4.10;94.20
83500;DHT22;73433;50.908;13.746;2023-12-20T05:41:00;4.10;94.30
83500;DHT22;73433;50.908;13.746;2023-12-20T05:43:27;4.10;94.30
83500;DHT22;73433;50.908;13.746;2023-12-20T05:45:54;4.20;94.40
83500;DHT22;73433;50.908;13.746;2023-12-20T05:48:22;4.20;94.30
83500;DHT22;73433;50.908;13.746;2023-12-20T05:50:49;4.20;94.20
83500;DHT22;73433;50.908;13.746;2023-12-20T05:53:17;4.20;94.10
83500;DHT22;73433;50.908;13.746;2023-12-20T05:55:45;4.20;94.30
83500;DHT22;73433;50.908;13.746;2023-12-20T05:58:12;4.20;94.20
83500;DHT22;73433;50.908;13.746;2023-12-20T06:00:39;4.20;94.20
83500;DHT22;73433;50.908;13.746;2023-12-20T06:03:07;4.20;94.00
83500;DHT22;73433;50.908;13.746;2023-12-20T06:05:34;4.20;93.90
83500;DHT22;73433;50.908;13.746;2023-12-20T06:08:02;4.20;93.90
83500;DHT22;73433;50.908;13.746;2023-12-20T06:10:30;4.20;94.00
83500;DHT22;73433;50.908;13.746;2023-12-20T06:12:58;4.20;94.00
83500;DHT22;73433;50.908;13.746;2023-12-20T06:15:27;4.20;94.20
83500;DHT22;73433;50.908;13.746;2023-12-20T06:17:55;4.20;94.20
83500;DHT22;73433;50.908;13.746;2023-12-20T06:20:22;4.10;94.20
83500;DHT22;73433;50.908;13.746;2023-12-20T06:22:50;4.10;94.30
83500;DHT22;73433;50.908;13.746;2023-12-20T06:25:17;4.20;94.50
83500;DHT22;73433;50.908;13.746;2023-12-20T06:27:48;4.20;94.60
83500;DHT22;73433;50.908;13.746;2023-12-20T06:30:16;4.20;94.40
83500;DHT22;73433;50.908;13.746;2023-12-20T06:32:44;4.30;94.50
83500;DHT22;73433;50.908;13.746;2023-12-20T06:35:14;4.20;94.30
83500;DHT22;73433;50.908;13.746;2023-12-20T06:37:41;4.30;94.50
83500;DHT22;73433;50.908;13.746;2023-12-20T06:40:12;4.30;94.50
83500;DHT22;73433;50.908;13.746;2023-12-20T06:42:44;4.30;94.50
83500;DHT22;73433;50.908;13.746;2023-12-20T06:45:28;4.30;94.60
83500;DHT22;73433;50.908;13.746;2023-12-20T06:47:55;4.30;94.60
83500;DHT22;73433;50.908;13.746;2023-12-20T06:50:23;4.30;95.40
83500;DHT22;73433;50.908;13.746;2023-12-20T06:52:50;4.30;95.40
83500;DHT22;73433;50.908;13.746;2023-12-20T06:55:19;4.30;94.70
83500;DHT22;73433;50.908;13.746;2023-12-20T06:57:46;4.30;94.60
83500;DHT22;73433;50.908;13.746;2023-12-20T07:00:14;4.40;94.60
83500;DHT22;73433;50.908;13.746;2023-12-20T07:02:43;4.40;94.70
83500;DHT22;73433;50.908;13.746;2023-12-20T07:05:11;4.40;94.60
83500;DHT22;73433;50.908;13.746;2023-12-20T07:07:39;4.40;94.40
83500;DHT22;73433;50.908;13.746;2023-12-20T07:10:07;4.50;94.60
83500;DHT22;73433;50.908;13.746;2023-12-20T07:12:35;4.50;94.50
83500;DHT22;73433;50.908;13.746;2023-12-20T07:15:02;4.50;94.30
83500;DHT22;73433;50.908;13.746;2023-12-20T07:17:30;4.50;94.30
83500;DHT22;73433;50.908;13.746;2023-12-20T07:19:57;4.60;94.20
83500;DHT22;73433;50.908;13.746;2023-12-20T07:22:25;4.60;94.10
83500;DHT22;73433;50.908;13.746;2023-12-20T07:24:53;4.60;94.00
83500;DHT22;73433;50.908;13.746;2023-12-20T07:27:22;4.60;94.00
83500;DHT22;73433;50.908;13.746;2023-12-20T07:29:49;4.60;93.90
83500;DHT22;73433;50.908;13.746;2023-12-20T07:32:17;4.60;93.90
83500;DHT22;73433;50.908;13.746;2023-12-20T07:34:44;4.60;93.90
83500;DHT22;73433;50.908;13.746;2023-12-20T07:37:12;4.70;93.90
83500;DHT22;73433;50.908;13.746;2023-12-20T07:39:41;4.70;93.80
83500;DHT22;73433;50.908;13.746;2023-12-20T07:42:09;4.70;93.80
83500;DHT22;73433;50.908;13.746;2023-12-20T07:44:36;4.70;93.50
83500;DHT22;73433;50.908;13.746;2023-12-20T07:47:04;4.70;93.40
83500;DHT22;73433;50.908;13.746;2023-12-20T07:49:31;4.70;93.30
83500;DHT22;73433;50.908;13.746;2023-12-20T07:51:59;4.70;93.20
83500;DHT22;73433;50.908;13.746;2023-12-20T07:54:27;4.70;93.10
83500;DHT22;73433;50.908;13.746;2023-12-20T07:56:56;4.70;92.80
83500;DHT22;73433;50.908;13.746;2023-12-20T07:59:24;4.70;92.70
83500;DHT22;73433;50.908;13.746;2023-12-20T08:01:59;4.70;92.60
83500;DHT22;73433;50.908;13.746;2023-12-20T08:04:27;4.70;92.50
83500;DHT22;73433;50.908;13.746;2023-12-20T08:06:55;4.70;92.30
83500;DHT22;73433;50.908;13.746;2023-12-20T08:09:22;4.70;92.00
83500;DHT22;73433;50.908;13.746;2023-12-20T08:11:50;4.70;91.80
83500;DHT22;73433;50.908;13.746;2023-12-20T08:14:17;4.90;92.60
83500;DHT22;73433;50.908;13.746;2023-12-20T08:16:45;5.10;91.60
83500;DHT22;73433;50.908;13.746;2023-12-20T08:19:13;5.30;91.50
83500;DHT22;73433;50.908;13.746;2023-12-20T08:21:41;5.90;91.80
83500;DHT22;73433;50.908;13.746;2023-12-20T08:24:08;6.50;90.20
83500;DHT22;73433;50.908;13.746;2023-12-20T08:26:36;7.00;87.10
83500;DHT22;73433;50.908;13.746;2023-12-20T08:29:03;7.00;83.00
83500;DHT22;73433;50.908;13.746;2023-12-20T08:31:31;6.80;81.90
83500;DHT22;73433;50.908;13.746;2023-12-20T08:33:58;6.50;82.10
83500;DHT22;73433;50.908;13.746;2023-12-20T08:36:26;6.40;82.90
83500;DHT22;73433;50.908;13.746;2023-12-20T08:38:53;6.40;83.30
83500;DHT22;73433;50.908;13.746;2023-12-20T08:41:22;6.70;84.40
83500;DHT22;73433;50.908;13.746;2023-12-20T08:43:49;7.10;81.90
83500;DHT22;73433;50.908;13.746;2023-12-20T08:46:18;7.40;80.70
83500;DHT22;73433;50.908;13.746;2023-12-20T08:48:45;7.90;80.10
83500;DHT22;73433;50.908;13.746;2023-12-20T08:51:13;8.20;78.50
83500;DHT22;73433;50.908;13.746;2023-12-20T08:53:41;8.40;76.90
83500;DHT22;73433;50.908;13.746;2023-12-20T08:56:09;8.70;75.90
83500;DHT22;73433;50.908;13.746;2023-12-20T08:58:36;8.90;72.80
83500;DHT22;73433;50.908;13.746;2023-12-20T09:01:04;8.60;70.30
83500;DHT22;73433;50.908;13.746;2023-12-20T09:03:32;8.20;70.60
83500;DHT22;73433;50.908;13.746;2023-12-20T09:05:59;8.00;71.40
83500;DHT22;73433;50.908;13.746;2023-12-20T09:08:27;7.70;71.30
83500;DHT22;73433;50.908;13.746;2023-12-20T09:10:54;7.30;71.70
83500;DHT22;73433;50.908;13.746;2023-12-20T09:13:22;6.90;73.00
83500;DHT22;73433;50.908;13.746;2023-12-20T09:15:56;6.70;74.40
83500;DHT22;73433;50.908;13.746;2023-12-20T09:18:24;6.60;74.60
83500;DHT22;73433;50.908;13.746;2023-12-20T09:20:51;6.40;75.70
83500;DHT22;73433;50.908;13.746;2023-12-20T09:23:19;6.70;78.20
83500;DHT22;73433;50.908;13.746;2023-12-20T09:25:47;7.40;78.70
83500;DHT22;73433;50.908;13.746;2023-12-20T09:28:14;8.10;77.50
83500;DHT22;73433;50.908;13.746;2023-12-20T09:30:42;8.70;75.00
83500;DHT22;73433;50.908;13.746;2023-12-20T09:33:12;9.00;73.60
83500;DHT22;73433;50.908;13.746;2023-12-20T09:35:40;9.50;71.90
83500;DHT22;73433;50.908;13.746;2023-12-20T09:38:08;9.80;70.00
83500;DHT22;73433;50.908;13.746;2023-12-20T09:40:36;10.00;68.00
83500;DHT22;73433;50.908;13.746;2023-12-20T09:43:14;10.10;68.10
83500;DHT22;73433;50.908;13.746;2023-12-20T09:45:46;10.30;67.20
83500;DHT22;73433;50.908;13.746;2023-12-20T09:48:18;10.50;66.60
83500;DHT22;73433;50.908;13.746;2023-12-20T09:50:47;10.60;65.00
83500;DHT22;73433;50.908;13.746;2023-12-20T09:53:21;10.60;63.90
83500;DHT22;73433;50.908;13.746;2023-12-20T09:55:52;10.50;63.90
83500;DHT22;73433;50.908;13.746;2023-12-20T09:58:20;10.60;64.60
83500;DHT22;73433;50.908;13.746;2023-12-20T10:00:48;10.80;64.70
83500;DHT22;73433;50.908;13.746;2023-12-20T10:03:16;11.00;63.50
83500;DHT22;73433;50.908;13.746;2023-12-20T10:05:44;11.20;62.90
83500;DHT22;73433;50.908;13.746;2023-12-20T10:08:12;11.20;62.50
83500;DHT22;73433;50.908;13.746;2023-12-20T10:10:40;11.40;61.90
83500;DHT22;73433;50.908;13.746;2023-12-20T10:13:15;11.30;61.10
83500;DHT22;73433;50.908;13.746;2023-12-20T10:15:43;11.50;61.10
83500;DHT22;73433;50.908;13.746;2023-12-20T10:18:12;11.90;61.00
83500;DHT22;73433;50.908;13.746;2023-12-20T10:20:41;11.80;58.70
83500;DHT22;73433;50.908;13.746;2023-12-20T10:23:10;11.40;59.40
83500;DHT22;73433;50.908;13.746;2023-12-20T10:25:38;11.20;59.90
83500;DHT22;73433;50.908;13.746;2023-12-20T10:28:14;11.30;61.50
83500;DHT22;73433;50.908;13.746;2023-12-20T10:30:44;11.50;59.50
83500;DHT22;73433;50.908;13.746;2023-12-20T10:33:12;11.60;59.40
83500;DHT22;73433;50.908;13.746;2023-12-20T10:35:40;11.70;58.80
83500;DHT22;73433;50.908;13.746;2023-12-20T10:38:15;11.80;59.00
83500;DHT22;73433;50.908;13.746;2023-12-20T10:40:42;12.00;58.70
83500;DHT22;73433;50.908;13.746;2023-12-20T10:43:12;12.10;57.40
83500;DHT22;73433;50.908;13.746;2023-12-20T10:45:42;12.20;58.30
83500;DHT22;73433;50.908;13.746;2023-12-20T10:48:11;12.10;56.50
83500;DHT22;73433;50.908;13.746;2023-12-20T10:50:42;12.00;57.20
83500;DHT22;73433;50.908;13.746;2023-12-20T10:53:10;12.00;56.70
83500;DHT22;73433;50.908;13.746;2023-12-20T10:55:40;11.90;56.90
83500;DHT22;73433;50.908;13.746;2023-12-20T10:58:09;11.50;56.60
83500;DHT22;73433;50.908;13.746;2023-12-20T11:00:40;11.30;57.90
83500;DHT22;73433;50.908;13.746;2023-12-20T11:03:12;11.30;57.30
83500;DHT22;73433;50.908;13.746;2023-12-20T11:05:54;11.20;57.50
83500;DHT22;73433;50.908;13.746;2023-12-20T11:08:32;11.40;58.10
83500;DHT22;73433;50.908;13.746;2023-12-20T11:17:15;12.00;56.70
83500;DHT22;73433;50.908;13.746;2023-12-20T11:20:08;12.30;55.70
83500;DHT22;73433;50.908;13.746;2023-12-20T11:23:34;12.00;53.60
83500;DHT22;73433;50.908;13.746;2023-12-20T11:26:16;11.00;54.20
83500;DHT22;73433;50.908;13.746;2023-12-20T11:28:44;10.20;56.20
83500;DHT22;73433;50.908;13.746;2023-12-20T11:31:17;9.80;58.40
83500;DHT22;73433;50.908;13.746;2023-12-20T11:33:47;10.00;60.50
83500;DHT22;73433;50.908;13.746;2023-12-20T11:36:48;10.60;59.50
83500;DHT22;73433;50.908;13.746;2023-12-20T11:39:21;11.00;58.50
83500;DHT22;73433;50.908;13.746;2023-12-20T11:41:49;11.50;57.60
83500;DHT22;73433;50.908;13.746;2023-12-20T11:44:20;11.50;55.70
83500;DHT22;73433;50.908;13.746;2023-12-20T11:46:48;11.00;55.30
83500;DHT22;73433;50.908;13.746;2023-12-20T11:49:16;10.90;55.80
83500;DHT22;73433;50.908;13.746;2023-12-20T11:51:44;10.60;55.70
83500;DHT22;73433;50.908;13.746;2023-12-20T11:54:15;10.10;56.50
83500;DHT22;73433;50.908;13.746;2023-12-20T11:56:48;9.50;57.30
83500;DHT22;73433;50.908;13.746;2023-12-20T11:59:25;8.90;58.90
83500;DHT22;73433;50.908;13.746;2023-12-20T12:01:52;8.40;60.20
83500;DHT22;73433;50.908;13.746;2023-12-20T12:04:20;8.00;62.90
83500;DHT22;73433;50.908;13.746;2023-12-20T12:06:48;7.70;63.70
83500;DHT22;73433;50.908;13.746;2023-12-20T12:09:15;7.50;65.00
83500;DHT22;73433;50.908;13.746;2023-12-20T12:11:44;7.40;65.90
83500;DHT22;73433;50.908;13.746;2023-12-20T12:14:11;7.40;67.40
83500;DHT22;73433;50.908;13.746;2023-12-20T12:16:41;8.00;68.50
83500;DHT22;73433;50.908;13.746;2023-12-20T12:19:20;8.70;66.90
83500;DHT22;73433;50.908;13.746;2023-12-20T12:21:49;9.50;64.40
83500;DHT22;73433;50.908;13.746;2023-12-20T12:24:20;10.00;62.40
83500;DHT22;73433;50.908;13.746;2023-12-20T12:26:50;10.50;60.90
83500;DHT22;73433;50.908;13.746;2023-12-20T12:29:18;10.70;59.20
83500;DHT22;73433;50.908;13.746;2023-12-20T12:31:46;11.00;58.20
83500;DHT22;73433;50.908;13.746;2023-12-20T12:34:13;11.00;56.60
83500;DHT22;73433;50.908;13.746;2023-12-20T12:36:41;10.90;56.10
83500;DHT22;73433;50.908;13.746;2023-12-20T12:39:12;10.90;56.30
83500;DHT22;73433;50.908;13.746;2023-12-20T12:41:42;11.00;57.00
83500;DHT22;73433;50.908;13.746;2023-12-20T12:44:09;11.20;56.40
83500;DHT22;73433;50.908;13.746;2023-12-20T12:46:46;11.30;55.00
83500;DHT22;73433;50.908;13.746;2023-12-20T12:49:13;11.20;55.20
83500;DHT22;73433;50.908;13.746;2023-12-20T12:51:41;11.20;54.80
83500;DHT22;73433;50.908;13.746;2023-12-20T12:54:08;11.20;54.80
83500;DHT22;73433;50.908;13.746;2023-12-20T12:56:37;11.20;54.70
83500;DHT22;73433;50.908;13.746;2023-12-20T12:59:04;11.30;55.20
83500;DHT22;73433;50.908;13.746;2023-12-20T13:01:32;11.50;54.70
83500;DHT22;73433;50.908;13.746;2023-12-20T13:04:00;11.50;54.10
83500;DHT22;73433;50.908;13.746;2023-12-20T13:06:30;11.50;53.50
83500;DHT22;73433;50.908;13.746;2023-12-20T13:08:58;11.20;53.20
83500;DHT22;73433;50.908;13.746;2023-12-20T13:11:25;10.50;53.40
83500;DHT22;73433;50.908;13.746;2023-12-20T13:13:53;9.80;54.70
83500;DHT22;73433;50.908;13.746;2023-12-20T13:16:20;9.10;56.40
83500;DHT22;73433;50.908;13.746;2023-12-20T13:18:48;8.60;58.00
83500;DHT22;73433;50.908;13.746;2023-12-20T13:21:16;8.20;59.40
83500;DHT22;73433;50.908;13.746;2023-12-20T13:23:44;7.80;61.00
83500;DHT22;73433;50.908;13.746;2023-12-20T13:26:11;7.50;62.00
83500;DHT22;73433;50.908;13.746;2023-12-20T13:28:38;7.30;63.20
83500;DHT22;73433;50.908;13.746;2023-12-20T13:31:06;7.20;64.40
83500;DHT22;73433;50.908;13.746;2023-12-20T13:33:34;7.30;66.20
83500;DHT22;73433;50.908;13.746;2023-12-20T13:36:02;7.90;66.40
83500;DHT22;73433;50.908;13.746;2023-12-20T13:38:33;8.60;65.50
83500;DHT22;73433;50.908;13.746;2023-12-20T13:41:01;8.90;62.90
83500;DHT22;73433;50.908;13.746;2023-12-20T13:43:28;8.70;61.60
83500;DHT22;73433;50.908;13.746;2023-12-20T13:45:56;8.30;62.20
83500;DHT22;73433;50.908;13.746;2023-12-20T13:48:24;8.00;62.60
83500;DHT22;73433;50.908;13.746;2023-12-20T13:50:51;7.70;63.80
83500;DHT22;73433;50.908;13.746;2023-12-20T13:53:19;7.70;64.60
83500;DHT22;73433;50.908;13.746;2023-12-20T13:55:46;7.70;65.40
83500;DHT22;73433;50.908;13.746;2023-12-20T13:58:14;7.90;65.50
83500;DHT22;73433;50.908;13.746;2023-12-20T14:00:41;7.80;64.90
83500;DHT22;73433;50.908;13.746;2023-12-20T14:03:09;7.50;64.90
83500;DHT22;73433;50.908;13.746;2023-12-20T14:05:38;7.20;65.40
83500;DHT22;73433;50.908;13.746;2023-12-20T14:08:06;6.90;66.20
83500;DHT22;73433;50.908;13.746;2023-12-20T14:10:35;6.80;67.10
83500;DHT22;73433;50.908;13.746;2023-12-20T14:13:02;6.60;67.90
83500;DHT22;73433;50.908;13.746;2023-12-20T14:15:30;6.60;68.60
83500;DHT22;73433;50.908;13.746;2023-12-20T14:18:05;6.50;68.80
83500;DHT22;73433;50.908;13.746;2023-12-20T14:20:36;6.40;69.10
83500;DHT22;73433;50.908;13.746;2023-12-20T14:23:03;6.40;69.60
83500;DHT22;73433;50.908;13.746;2023-12-20T14:25:31;6.30;69.90
83500;DHT22;73433;50.908;13.746;2023-12-20T14:28:12;6.20;70.30
83500;DHT22;73433;50.908;13.746;2023-12-20T14:30:41;6.10;71.40
83500;DHT22;73433;50.908;13.746;2023-12-20T14:33:09;6.00;71.50
83500;DHT22;73433;50.908;13.746;2023-12-20T14:35:37;5.90;71.50
83500;DHT22;73433;50.908;13.746;2023-12-20T14:38:04;5.80;71.70
83500;DHT22;73433;50.908;13.746;2023-12-20T14:40:32;5.80;72.40
83500;DHT22;73433;50.908;13.746;2023-12-20T14:42:59;5.80;72.70
83500;DHT22;73433;50.908;13.746;2023-12-20T14:45:27;5.80;73.00
83500;DHT22;73433;50.908;13.746;2023-12-20T14:47:54;5.80;73.00
83500;DHT22;73433;50.908;13.746;2023-12-20T14:50:23;5.80;73.00
83500;DHT22;73433;50.908;13.746;2023-12-20T14:52:51;5.70;73.00
83500;DHT22;73433;50.908;13.746;2023-12-20T14:55:21;5.80;73.30
83500;DHT22;73433;50.908;13.746;2023-12-20T14:57:49;5.70;73.20
83500;DHT22;73433;50.908;13.746;2023-12-20T15:00:16;5.70;73.70
83500;DHT22;73433;50.908;13.746;2023-12-20T15:02:45;5.70;73.50
83500;DHT22;73433;50.908;13.746;2023-12-20T15:05:13;5.70;73.60
83500;DHT22;73433;50.908;13.746;2023-12-20T15:07:42;5.70;73.90
83500;DHT22;73433;50.908;13.746;2023-12-20T15:10:09;5.70;73.90
83500;DHT22;73433;50.908;13.746;2023-12-20T15:12:37;5.70;74.00
83500;DHT22;73433;50.908;13.746;2023-12-20T15:15:05;5.70;74.20
83500;DHT22;73433;50.908;13.746;2023-12-20T15:17:33;5.70;74.50
83500;DHT22;73433;50.908;13.746;2023-12-20T15:20:03;5.70;74.60
83500;DHT22;73433;50.908;13.746;2023-12-20T15:22:37;5.70;74.70
83500;DHT22;73433;50.908;13.746;2023-12-20T15:25:07;5.70;74.70
83500;DHT22;73433;50.908;13.746;2023-12-20T15:27:35;5.70;74.70
83500;DHT22;73433;50.908;13.746;2023-12-20T15:30:06;5.70;74.80
83500;DHT22;73433;50.908;13.746;2023-12-20T15:32:36;5.70;74.90
83500;DHT22;73433;50.908;13.746;2023-12-20T15:35:05;5.60;74.70
83500;DHT22;73433;50.908;13.746;2023-12-20T15:37:33;5.60;75.60
83500;DHT22;73433;50.908;13.746;2023-12-20T15:40:01;5.60;74.70
83500;DHT22;73433;50.908;13.746;2023-12-20T15:42:32;5.60;74.70